Time;durP1;ratioP1;P1;durP2;ratioP2;P2;SDS_P1;SDS_P2;PMS_P1;PMS_P2;Temp;Humidity;BMP_temperature;BMP_pressure;BME280_temperature;BME280_humidity;BME280_pressure;Samples;Min_cycle;Max_cycle;Signal;HPM_P1;HPM_P2
2022/06/12 00:00:04;;;;;;;11.67;2.60;;;17.30;99.10;;;;;;4996522;28;20175;-81
2022/06/12 00:02:30;;;;;;;6.47;2.60;;;17.40;99.20;;;;;;4995337;28;20763;-80
2022/06/12 00:04:56;;;;;;;12.10;2.63;;;17.40;99.30;;;;;;4995746;28;20211;-80
2022/06/12 00:07:21;;;;;;;10.17;2.70;;;17.40;99.30;;;;;;4995549;28;20203;-81
2022/06/12 00:09:47;;;;;;;11.03;3.00;;;17.40;99.10;;;;;;5006777;23;20222;-79
2022/06/12 00:12:13;;;;;;;10.17;3.53;;;17.40;99.20;;;;;;5026295;28;20214;-78
2022/06/12 00:14:39;;;;;;;11.53;3.10;;;17.40;99.00;;;;;;5026572;28;20167;-78
2022/06/12 00:17:05;;;;;;;10.47;3.00;;;17.50;98.70;;;;;;4995314;28;20217;-79
2022/06/12 00:19:30;;;;;;;6.57;2.50;;;17.50;99.20;;;;;;5026519;28;20250;-78
2022/06/12 00:21:57;;;;;;;9.37;2.90;;;17.50;99.00;;;;;;5026055;28;20199;-79
2022/06/12 00:24:24;;;;;;;10.03;3.03;;;17.50;99.10;;;;;;4993370;28;20455;-78
2022/06/12 00:26:53;;;;;;;9.73;3.53;;;17.70;98.40;;;;;;5025801;28;20226;-79
2022/06/12 00:29:31;;;;;;;13.93;3.10;;;17.70;98.30;;;;;;5026121;28;20175;-79
2022/06/12 00:32:01;;;;;;;8.97;3.17;;;17.70;98.50;;;;;;5025892;28;20202;-77
2022/06/12 00:34:30;;;;;;;9.03;2.77;;;17.50;98.70;;;;;;5025875;28;20298;-79
2022/06/12 00:36:57;;;;;;;13.20;3.10;;;17.50;99.30;;;;;;5025609;28;20811;-79
2022/06/12 00:39:24;;;;;;;10.87;3.60;;;17.40;98.50;;;;;;5024727;28;20537;-78
2022/06/12 00:41:53;;;;;;;16.23;3.07;;;17.50;98.50;;;;;;5024487;28;20217;-78
2022/06/12 00:44:24;;;;;;;10.97;2.90;;;17.50;98.60;;;;;;5024704;28;20183;-78
2022/06/12 00:47:03;;;;;;;17.70;2.97;;;17.20;98.80;;;;;;5024509;28;20179;-79
2022/06/12 00:49:52;;;;;;;11.47;2.63;;;17.20;98.60;;;;;;5024699;28;20179;-79
2022/06/12 00:52:30;;;;;;;14.83;3.27;;;16.90;99.10;;;;;;5025450;28;20213;-78
2022/06/12 00:55:01;;;;;;;14.00;3.00;;;16.70;99.20;;;;;;5026117;28;20167;-78
2022/06/12 00:57:28;;;;;;;16.80;3.50;;;16.90;99.10;;;;;;5026223;28;20195;-78
2022/06/12 00:59:57;;;;;;;14.07;2.80;;;16.80;99.40;;;;;;5026129;28;20175;-78
2022/06/12 01:02:27;;;;;;;14.70;2.87;;;16.80;99.30;;;;;;5026149;28;20199;-79
2022/06/12 01:07:46;;;;;;;10.73;2.80;;;16.80;99.80;;;;;;4995486;28;20664;-79
2022/06/12 01:10:14;;;;;;;14.87;2.90;;;16.60;99.90;;;;;;5026122;28;20194;-79
2022/06/12 01:12:48;;;;;;;8.87;2.70;;;16.60;99.90;;;;;;5025566;28;20226;-79
2022/06/12 01:15:35;;;;;;;12.40;2.87;;;16.70;99.90;;;;;;5025402;28;20179;-79
2022/06/12 01:18:03;;;;;;;14.50;2.93;;;16.40;99.90;;;;;;5025991;28;20698;-78
2022/06/12 01:20:34;;;;;;;12.07;2.83;;;16.30;99.90;;;;;;5026110;28;20632;-78
2022/06/12 01:23:03;;;;;;;10.53;3.00;;;16.20;99.90;;;;;;5025425;28;20222;-78
2022/06/12 01:25:54;;;;;;;11.80;3.23;;;16.20;99.90;;;;;;5025722;28;20175;-78
2022/06/12 01:28:46;;;;;;;12.73;2.67;;;16.10;99.90;;;;;;5025876;28;20179;-79
2022/06/12 01:31:24;;;;;;;8.33;2.70;;;16.10;99.90;;;;;;5025234;28;20202;-80
2022/06/12 01:34:03;;;;;;;16.27;3.10;;;16.10;99.90;;;;;;5025014;28;20671;-79
2022/06/12 01:36:50;;;;;;;12.37;2.90;;;16.10;99.90;;;;;;5025556;28;20178;-79
2022/06/12 01:39:37;;;;;;;12.40;3.33;;;15.90;99.90;;;;;;5027988;28;20171;-78
2022/06/12 01:42:08;;;;;;;9.57;3.00;;;16.00;99.90;;;;;;5027726;28;20233;-78
2022/06/12 01:45:01;;;;;;;13.10;3.13;;;15.80;99.90;;;;;;5027984;28;20187;-78
2022/06/12 01:47:31;;;;;;;10.57;3.70;;;15.70;99.90;;;;;;5027274;28;20632;-77
2022/06/12 01:50:09;;;;;;;15.07;3.40;;;15.60;99.90;;;;;;5027513;28;20183;-78
2022/06/12 01:52:45;;;;;;;13.27;3.67;;;15.60;99.90;;;;;;5027160;28;20717;-78
2022/06/12 01:55:20;;;;;;;10.23;2.97;;;15.60;99.90;;;;;;5027876;28;20173;-78
2022/06/12 01:57:50;;;;;;;10.40;2.70;;;15.60;99.90;;;;;;5027767;28;20171;-78
2022/06/12 02:00:20;;;;;;;13.10;3.30;;;15.60;99.90;;;;;;5027461;28;20187;-78
2022/06/12 02:02:53;;;;;;;9.60;2.73;;;15.40;99.90;;;;;;5026732;28;20241;-77
2022/06/12 02:05:27;;;;;;;11.57;2.80;;;15.40;99.90;;;;;;5026792;28;20187;-77
2022/06/12 02:08:05;;;;;;;10.97;3.53;;;15.30;99.90;;;;;;5027317;28;20187;-80
2022/06/12 02:10:46;;;;;;;10.23;3.30;;;15.20;99.90;;;;;;5027646;28;20581;-78
2022/06/12 02:13:35;;;;;;;13.77;3.20;;;15.10;99.90;;;;;;5027133;28;20203;-77
2022/06/12 02:16:10;;;;;;;10.17;3.30;;;15.20;99.90;;;;;;5027516;28;20186;-78
2022/06/12 02:18:50;;;;;;;14.80;3.63;;;15.00;99.90;;;;;;4994759;28;20229;-78
2022/06/12 02:21:41;;;;;;;16.17;3.60;;;15.10;99.90;;;;;;5026811;28;20245;-79
2022/06/12 02:24:16;;;;;;;11.13;3.33;;;15.00;99.90;;;;;;5027091;28;20171;-80
2022/06/12 02:26:57;;;;;;;10.63;3.97;;;14.90;99.90;;;;;;5028184;28;20184;-78
2022/06/12 02:29:39;;;;;;;11.70;3.37;;;14.80;99.90;;;;;;5027103;28;20235;-80
2022/06/12 02:32:28;;;;;;;16.67;3.80;;;14.90;99.90;;;;;;5027022;28;20206;-79
2022/06/12 02:35:01;;;;;;;11.00;3.83;;;14.70;99.90;;;;;;4987255;28;20261;-79
2022/06/12 02:37:35;;;;;;;10.97;3.87;;;14.70;99.90;;;;;;5027058;28;20171;-77
2022/06/12 02:40:08;;;;;;;13.67;3.70;;;14.80;99.90;;;;;;5027065;28;20574;-77
2022/06/12 02:42:40;;;;;;;10.27;3.50;;;14.80;99.90;;;;;;5027183;28;20206;-77
2022/06/12 02:45:08;;;;;;;10.87;3.70;;;14.70;99.90;;;;;;5027712;28;20175;-79
2022/06/12 02:47:37;;;;;;;10.60;3.57;;;14.70;99.90;;;;;;4995443;28;20659;-80
2022/06/12 02:50:04;;;;;;;11.23;3.90;;;14.50;99.90;;;;;;4995019;28;20183;-80
2022/06/12 02:52:50;;;;;;;16.77;4.47;;;14.60;99.90;;;;;;5027488;28;20214;-79
2022/06/12 02:55:43;;;;;;;13.53;4.27;;;14.50;99.90;;;;;;5027966;28;20193;-77
2022/06/12 02:58:20;;;;;;;13.83;4.00;;;14.50;99.90;;;;;;5028470;28;20171;-79
2022/06/12 03:01:14;;;;;;;10.77;4.23;;;14.40;99.90;;;;;;5027008;28;20171;-77
2022/06/12 03:04:12;;;;;;;13.67;3.83;;;14.30;99.90;;;;;;4993013;28;20186;-79
2022/06/12 03:06:38;;;;;;;17.20;3.83;;;14.30;99.90;;;;;;5027324;28;20198;-78
2022/06/12 03:09:05;;;;;;;21.13;4.40;;;14.30;99.90;;;;;;5027176;28;20195;-77
2022/06/12 03:11:44;;;;;;;14.80;4.67;;;14.20;99.90;;;;;;5026931;28;20246;-79
2022/06/12 03:14:14;;;;;;;10.93;3.60;;;14.30;99.90;;;;;;5026049;28;20571;-80
2022/06/12 03:16:42;;;;;;;19.37;4.50;;;14.10;99.90;;;;;;5026299;28;20183;-80
2022/06/12 03:19:17;;;;;;;15.43;4.57;;;14.10;99.90;;;;;;5026299;28;20171;-79
2022/06/12 03:22:25;;;;;;;18.13;4.53;;;14.20;99.90;;;;;;5026361;28;20198;-76
2022/06/12 03:25:17;;;;;;;12.70;4.63;;;14.10;99.90;;;;;;5026166;28;20277;-77
2022/06/12 03:27:59;;;;;;;13.70;4.07;;;14.00;99.90;;;;;;5026001;28;20190;-78
2022/06/12 03:30:33;;;;;;;13.87;4.40;;;14.10;99.90;;;;;;4995429;28;20186;-77
2022/06/12 03:33:38;;;;;;;13.93;4.20;;;14.00;99.90;;;;;;5026395;28;20202;-77
2022/06/12 03:36:06;;;;;;;17.73;4.57;;;14.00;99.90;;;;;;4993962;28;20185;-79
2022/06/12 03:38:52;;;;;;;9.73;4.10;;;14.10;99.90;;;;;;5026712;28;20171;-76
2022/06/12 03:41:30;;;;;;;17.17;4.20;;;14.10;99.90;;;;;;4984104;28;20721;-77
2022/06/12 03:44:14;;;;;;;9.90;3.97;;;14.10;99.90;;;;;;5026862;28;20269;-78
2022/06/12 03:46:49;;;;;;;11.47;4.00;;;13.90;99.90;;;;;;5026795;28;20233;-78
2022/06/12 03:49:14;;;;;;;13.13;4.80;;;14.00;99.90;;;;;;5026562;28;20185;-77
2022/06/12 03:51:46;;;;;;;19.37;5.07;;;14.00;99.90;;;;;;5025891;28;20198;-78
2022/06/12 03:54:40;;;;;;;15.53;4.27;;;14.00;99.90;;;;;;5026492;28;20201;-77
2022/06/12 03:57:53;;;;;;;16.77;4.60;;;14.30;99.90;;;;;;5027161;28;20199;-78
2022/06/12 04:00:42;;;;;;;13.87;4.10;;;14.30;99.90;;;;;;4973097;28;20258;-78
2022/06/12 04:03:16;;;;;;;11.87;4.47;;;14.00;99.90;;;;;;5025515;28;20613;-79
2022/06/12 04:05:56;;;;;;;17.27;4.90;;;14.20;99.90;;;;;;4994915;28;20181;-79
2022/06/12 04:08:33;;;;;;;11.83;4.03;;;14.40;99.90;;;;;;5026327;28;20658;-79
2022/06/12 04:10:59;;;;;;;12.87;4.10;;;14.30;99.90;;;;;;5026625;28;20186;-79
2022/06/12 04:13:25;;;;;;;15.23;4.77;;;14.50;99.90;;;;;;5026458;28;20209;-77
2022/06/12 04:16:12;;;;;;;19.60;4.23;;;14.40;99.90;;;;;;4993318;28;20255;-80
2022/06/12 04:18:38;;;;;;;17.93;4.50;;;14.50;99.90;;;;;;5025711;28;20181;-79
2022/06/12 04:21:10;;;;;;;14.87;4.30;;;14.70;99.90;;;;;;5025524;28;20176;-79
2022/06/12 04:24:01;;;;;;;21.17;4.30;;;14.80;99.90;;;;;;5025477;28;20268;-78
2022/06/12 04:26:39;;;;;;;10.90;4.37;;;14.90;99.90;;;;;;5026421;28;20179;-79
2022/06/12 04:29:27;;;;;;;15.13;3.90;;;14.80;99.90;;;;;;5025949;28;20179;-80
2022/06/12 04:31:55;;;;;;;21.10;4.00;;;15.10;99.90;;;;;;4986640;28;20285;-80
2022/06/12 04:34:31;;;;;;;12.10;4.00;;;15.20;99.90;;;;;;5026339;28;20172;-79
2022/06/12 04:37:18;;;;;;;17.37;3.90;;;15.20;99.90;;;;;;5025956;28;20175;-79
2022/06/12 04:39:45;;;;;;;17.03;3.87;;;15.60;99.90;;;;;;5025628;28;20175;-80
2022/06/12 04:42:17;;;;;;;6.60;3.23;;;15.90;99.90;;;;;;4993802;28;20205;-80
2022/06/12 04:44:43;;;;;;;10.77;3.23;;;16.00;99.90;;;;;;5025772;28;20226;-78
2022/06/12 04:47:13;;;;;;;12.57;3.50;;;16.20;99.90;;;;;;5025353;28;20583;-80
2022/06/12 04:49:40;;;;;;;11.13;3.50;;;16.50;99.90;;;;;;5025275;28;20199;-78
2022/06/12 04:52:09;;;;;;;12.83;3.33;;;17.00;99.90;;;;;;5025134;28;20214;-78
2022/06/12 04:54:36;;;;;;;12.23;3.63;;;17.10;99.90;;;;;;5025791;28;20221;-79
2022/06/12 04:57:03;;;;;;;12.00;2.95;;;17.10;99.90;;;;;;5025444;28;20172;-79
2022/06/12 04:59:29;;;;;;;15.88;3.40;;;17.00;99.90;;;;;;5026427;28;20172;-79
2022/06/12 05:01:55;;;;;;;19.65;3.97;;;17.10;99.90;;;;;;5024946;28;20567;-78
2022/06/12 05:04:22;;;;;;;16.08;3.20;;;17.20;99.90;;;;;;5025060;28;20270;-79
2022/06/12 05:06:51;;;;;;;13.65;3.40;;;17.40;99.90;;;;;;5025233;28;20245;-79
2022/06/12 05:09:21;;;;;;;10.05;2.65;;;17.90;99.90;;;;;;5025878;28;20195;-79
2022/06/12 05:11:46;;;;;;;14.10;3.30;;;18.00;99.90;;;;;;5026102;28;20562;-80
2022/06/12 05:14:13;;;;;;;12.00;3.20;;;18.40;99.90;;;;;;5029569;28;20175;-80
2022/06/12 05:16:47;;;;;;;10.57;3.10;;;18.40;99.90;;;;;;5029089;28;20167;-79
2022/06/12 05:19:18;;;;;;;9.32;2.78;;;18.20;99.90;;;;;;5030145;28;20175;-80
2022/06/12 05:21:44;;;;;;;11.23;2.80;;;18.40;99.90;;;;;;5029501;28;20199;-81
2022/06/12 05:24:11;;;;;;;10.98;2.53;;;18.90;99.90;;;;;;5028719;28;20646;-79
2022/06/12 05:26:42;;;;;;;9.82;2.47;;;19.20;99.90;;;;;;5029335;28;20707;-80
2022/06/12 05:29:14;;;;;;;16.05;2.70;;;19.00;99.90;;;;;;5029792;28;20266;-80
2022/06/12 05:31:39;;;;;;;7.07;2.28;;;19.30;99.90;;;;;;5029015;28;20203;-79
2022/06/12 05:34:05;;;;;;;8.45;2.13;;;19.20;99.90;;;;;;5030002;28;20176;-80
2022/06/12 05:36:31;;;;;;;7.50;2.28;;;19.60;99.90;;;;;;5029294;28;20570;-77
2022/06/12 05:38:57;;;;;;;9.30;2.55;;;19.60;99.90;;;;;;5029617;28;20651;-79
2022/06/12 05:41:22;;;;;;;10.73;2.58;;;19.60;99.10;;;;;;5029121;28;20214;-78
2022/06/12 05:43:48;;;;;;;7.57;2.10;;;19.70;98.40;;;;;;5029800;28;20203;-78
2022/06/12 05:46:16;;;;;;;5.38;2.17;;;19.80;98.10;;;;;;5029061;28;20662;-81
2022/06/12 05:48:43;;;;;;;7.85;2.05;;;19.80;99.00;;;;;;5029331;28;20640;-79
2022/06/12 05:51:12;;;;;;;7.95;1.90;;;20.20;98.20;;;;;;5029212;28;20193;-79
2022/06/12 05:53:38;;;;;;;5.90;1.80;;;20.30;97.60;;;;;;5029634;28;20203;-79
2022/06/12 05:56:10;;;;;;;4.65;1.60;;;19.90;96.30;;;;;;5029297;28;20713;-79
2022/06/12 05:58:37;;;;;;;4.75;1.50;;;19.80;97.60;;;;;;5029360;28;20176;-80
2022/06/12 06:01:08;;;;;;;4.88;1.30;;;20.20;97.50;;;;;;5028698;28;20766;-80
2022/06/12 06:03:34;;;;;;;5.47;1.63;;;20.70;96.10;;;;;;5029167;28;20181;-80
2022/06/12 06:06:00;;;;;;;8.38;1.80;;;20.90;95.10;;;;;;5029309;28;20175;-80
2022/06/12 06:08:26;;;;;;;5.90;1.63;;;21.20;93.80;;;;;;5029261;28;20266;-80
2022/06/12 06:10:52;;;;;;;5.07;1.42;;;21.50;93.50;;;;;;5039942;22;20231;-83
2022/06/12 06:13:17;;;;;;;4.45;1.90;;;21.70;94.40;;;;;;5025704;28;20299;-82
2022/06/12 06:15:45;;;;;;;4.47;1.40;;;21.90;94.20;;;;;;4995007;28;20571;-83
2022/06/12 06:18:11;;;;;;;4.10;1.30;;;22.10;93.00;;;;;;4995549;28;20177;-83
2022/06/12 06:20:38;;;;;;;5.00;1.20;;;22.10;92.80;;;;;;4996288;28;20535;-84
2022/06/12 06:23:05;;;;;;;3.63;1.50;;;22.30;93.00;;;;;;4992435;23;20282;-79
2022/06/12 06:25:31;;;;;;;4.47;1.30;;;21.80;92.30;;;;;;4975244;28;20183;-80
2022/06/12 06:27:57;;;;;;;1.85;1.20;;;22.20;91.50;;;;;;4978794;28;20180;-80
2022/06/12 06:30:25;;;;;;;4.55;1.50;;;22.00;91.30;;;;;;4976529;28;20583;-79
2022/06/12 06:32:51;;;;;;;3.15;1.30;;;22.20;91.00;;;;;;4981320;28;20214;-80
2022/06/12 06:35:17;;;;;;;4.57;1.27;;;22.20;91.30;;;;;;4982958;28;20267;-80
2022/06/12 06:37:43;;;;;;;5.32;1.52;;;22.20;91.10;;;;;;4975352;28;20204;-79
2022/06/12 06:40:12;;;;;;;3.25;1.55;;;22.70;91.30;;;;;;4977244;28;20176;-80
2022/06/12 06:42:37;;;;;;;3.33;1.30;;;22.70;91.50;;;;;;4977324;28;20228;-79
2022/06/12 06:47:48;;;;;;;5.60;1.42;;;23.00;90.80;;;;;;4977099;28;20183;-80
2022/06/12 06:50:16;;;;;;;7.32;1.50;;;23.30;91.50;;;;;;4976455;28;20204;-79
2022/06/12 06:52:41;;;;;;;3.70;1.42;;;23.30;90.30;;;;;;4975584;28;20204;-79
2022/06/12 06:55:09;;;;;;;6.32;1.70;;;23.40;90.70;;;;;;4975596;28;20234;-81
2022/06/12 06:57:39;;;;;;;5.00;1.67;;;23.30;90.60;;;;;;4974047;28;20176;-80
2022/06/12 07:00:08;;;;;;;7.50;1.73;;;23.60;90.90;;;;;;4974174;28;20593;-79
2022/06/12 07:02:34;;;;;;;10.95;1.60;;;23.10;89.60;;;;;;4974216;28;20196;-79
2022/06/12 07:05:00;;;;;;;7.18;1.77;;;23.10;91.60;;;;;;4975644;28;20518;-79
2022/06/12 07:07:25;;;;;;;5.18;1.60;;;23.10;91.40;;;;;;4974650;28;20179;-79
2022/06/12 07:09:51;;;;;;;6.57;1.75;;;23.90;90.20;;;;;;4972518;28;20214;-79
2022/06/12 07:12:17;;;;;;;7.15;1.77;;;23.60;90.10;;;;;;4971927;28;20196;-79
2022/06/12 07:14:42;;;;;;;7.68;1.85;;;23.40;90.20;;;;;;4974283;28;20175;-79
2022/06/12 07:17:08;;;;;;;9.00;2.03;;;23.60;90.20;;;;;;4973470;28;20231;-79
2022/06/12 07:19:34;;;;;;;4.75;1.77;;;23.40;90.20;;;;;;4973929;28;20179;-80
2022/06/12 07:22:00;;;;;;;7.90;2.15;;;23.50;90.00;;;;;;4975119;28;20188;-79
2022/06/12 07:24:26;;;;;;;6.60;1.73;;;23.50;90.80;;;;;;4974111;28;20219;-79
2022/06/12 07:26:52;;;;;;;6.47;1.95;;;23.80;90.90;;;;;;4974379;28;20218;-79
2022/06/12 07:29:19;;;;;;;7.72;1.98;;;24.00;90.30;;;;;;4974286;28;20171;-79
2022/06/12 07:31:46;;;;;;;7.13;1.65;;;23.90;89.80;;;;;;4974049;28;20188;-79
2022/06/12 07:34:13;;;;;;;5.72;1.70;;;23.70;90.30;;;;;;4974472;28;20185;-79
2022/06/12 07:36:40;;;;;;;8.20;1.85;;;23.70;90.40;;;;;;4973963;28;20175;-80
2022/06/12 07:39:10;;;;;;;4.72;1.73;;;24.30;90.10;;;;;;4974377;28;20545;-80
2022/06/12 07:41:36;;;;;;;6.43;1.88;;;24.30;90.40;;;;;;4974491;28;20203;-80
2022/06/12 07:44:02;;;;;;;5.78;1.63;;;24.00;91.00;;;;;;4974150;28;20200;-79
2022/06/12 07:46:28;;;;;;;7.82;1.75;;;24.30;90.20;;;;;;4973330;28;20226;-80
2022/06/12 07:48:54;;;;;;;7.57;1.90;;;23.80;90.30;;;;;;4974096;28;20176;-79
2022/06/12 07:51:21;;;;;;;6.88;1.70;;;24.50;90.70;;;;;;4973523;28;20196;-79
2022/06/12 07:53:50;;;;;;;5.63;1.88;;;24.70;90.30;;;;;;4974133;28;20625;-79
2022/06/12 07:56:17;;;;;;;6.00;2.22;;;24.80;90.00;;;;;;4974052;28;20172;-79
2022/06/12 07:58:43;;;;;;;10.10;2.70;;;24.60;88.90;;;;;;4975037;28;20168;-79
2022/06/12 08:01:11;;;;;;;6.03;1.60;;;24.80;85.70;;;;;;4975645;28;20542;-79
2022/06/12 08:03:37;;;;;;;4.55;1.75;;;24.30;87.70;;;;;;4973793;28;20176;-80
2022/06/12 08:06:03;;;;;;;3.65;1.80;;;25.00;87.70;;;;;;4974191;28;20175;-79
2022/06/12 08:08:29;;;;;;;7.97;1.60;;;24.80;87.70;;;;;;4974667;28;20203;-80
2022/06/12 08:10:56;;;;;;;5.65;1.58;;;24.80;82.60;;;;;;4973182;28;20176;-79
2022/06/12 08:13:25;;;;;;;5.55;1.58;;;24.50;84.20;;;;;;4974647;28;20258;-79
2022/06/12 08:15:52;;;;;;;5.95;1.60;;;24.90;85.70;;;;;;4976456;28;20175;-79
2022/06/12 08:18:19;;;;;;;5.68;1.40;;;25.10;85.40;;;;;;4973298;28;20539;-79
2022/06/12 08:20:52;;;;;;;5.97;1.83;;;24.90;83.90;;;;;;4973743;28;20656;-79
2022/06/12 08:23:28;;;;;;;9.68;1.80;;;25.10;83.50;;;;;;4973589;28;20191;-79
2022/06/12 08:26:05;;;;;;;5.30;1.73;;;25.30;84.20;;;;;;4973248;28;20182;-79
2022/06/12 08:28:35;;;;;;;4.07;1.75;;;25.30;81.00;;;;;;4973216;28;20652;-80
2022/06/12 08:31:03;;;;;;;6.72;2.00;;;25.60;81.40;;;;;;4976805;28;20199;-79
2022/06/12 08:33:29;;;;;;;3.63;1.45;;;24.90;81.70;;;;;;4977422;28;20239;-79
2022/06/12 08:35:55;;;;;;;7.65;1.63;;;24.70;83.80;;;;;;4974140;28;20622;-79
2022/06/12 08:38:20;;;;;;;6.07;1.80;;;25.20;81.50;;;;;;4974074;28;20176;-79
2022/06/12 08:41:08;;;;;;;8.10;1.92;;;24.50;82.50;;;;;;4975178;28;20187;-79
2022/06/12 08:43:55;;;;;;;5.63;1.73;;;25.10;83.30;;;;;;4973802;28;20180;-79
2022/06/12 08:46:27;;;;;;;6.38;2.08;;;25.30;85.90;;;;;;4973092;28;20180;-79
2022/06/12 08:49:15;;;;;;;5.70;1.60;;;25.80;85.50;;;;;;4977075;28;20718;-78
2022/06/12 08:51:53;;;;;;;8.15;1.50;;;26.10;83.40;;;;;;4976226;28;20214;-79
2022/06/12 08:54:29;;;;;;;5.70;1.50;;;26.20;81.90;;;;;;4977447;28;20215;-79
2022/06/12 08:57:01;;;;;;;2.92;1.48;;;25.80;81.20;;;;;;4976758;28;20175;-78
2022/06/12 08:59:35;;;;;;;4.47;1.40;;;25.70;79.20;;;;;;4976687;28;20234;-79
2022/06/12 09:02:04;;;;;;;4.00;1.73;;;25.30;81.60;;;;;;4977045;28;20202;-79
2022/06/12 09:04:31;;;;;;;5.10;1.60;;;25.60;83.40;;;;;;4977296;28;20202;-79
2022/06/12 09:07:00;;;;;;;5.30;1.42;;;26.00;81.50;;;;;;4977281;28;20641;-79
2022/06/12 09:09:42;;;;;;;2.42;1.25;;;26.10;81.50;;;;;;4977354;28;20641;-78
2022/06/12 09:12:23;;;;;;;5.40;1.58;;;25.80;80.70;;;;;;4978861;28;20235;-80
2022/06/12 09:15:04;;;;;;;5.22;1.20;;;25.80;77.20;;;;;;4979126;28;20172;-79
2022/06/12 09:17:32;;;;;;;6.38;1.58;;;25.60;75.90;;;;;;4978055;28;20703;-78
2022/06/12 09:20:25;;;;;;;5.93;1.70;;;25.90;78.20;;;;;;4977353;28;20198;-79
2022/06/12 09:22:59;;;;;;;8.23;1.60;;;25.50;78.50;;;;;;4976815;28;20216;-79
2022/06/12 09:25:39;;;;;;;6.57;1.50;;;26.10;77.70;;;;;;4977185;28;20183;-79
2022/06/12 09:28:11;;;;;;;4.80;1.42;;;26.50;79.00;;;;;;4978975;28;20214;-79
2022/06/12 09:30:42;;;;;;;4.15;1.60;;;26.90;79.50;;;;;;4976697;28;20223;-79
2022/06/12 09:33:26;;;;;;;4.78;1.50;;;26.40;79.00;;;;;;4976318;28;20203;-78
2022/06/12 09:36:10;;;;;;;6.07;2.00;;;26.60;78.00;;;;;;4976020;28;20724;-78
2022/06/12 09:39:04;;;;;;;6.07;2.08;;;25.90;78.00;;;;;;4979334;28;20175;-79
2022/06/12 09:41:47;;;;;;;7.57;1.83;;;26.20;78.70;;;;;;4978452;28;20188;-79
2022/06/12 09:44:13;;;;;;;6.93;1.60;;;26.30;82.20;;;;;;4977372;28;20283;-79
2022/06/12 09:46:45;;;;;;;4.25;1.70;;;26.60;81.70;;;;;;4979406;28;20203;-79
2022/06/12 09:49:13;;;;;;;6.90;1.70;;;26.90;80.70;;;;;;4977126;28;20187;-80
2022/06/12 09:51:48;;;;;;;9.23;1.90;;;27.40;80.30;;;;;;4981833;28;20192;-79
2022/06/12 09:54:39;;;;;;;7.88;1.88;;;27.10;79.90;;;;;;4979253;28;20632;-79
2022/06/12 09:57:27;;;;;;;12.55;2.55;;;27.00;79.50;;;;;;4959625;28;20188;-79
2022/06/12 10:00:06;;;;;;;6.75;1.90;;;26.50;80.20;;;;;;4975964;28;20172;-78
2022/06/12 10:03:01;;;;;;;7.93;2.30;;;27.00;80.50;;;;;;4977022;28;20196;-79
2022/06/12 10:05:49;;;;;;;6.72;2.00;;;26.40;83.00;;;;;;4963282;28;20215;-78
2022/06/12 10:08:17;;;;;;;8.98;1.90;;;26.50;79.80;;;;;;4976763;28;20180;-78
2022/06/12 10:10:53;;;;;;;10.32;2.10;;;25.70;81.50;;;;;;4976392;28;20549;-80
2022/06/12 10:13:38;;;;;;;10.93;2.13;;;25.80;83.10;;;;;;4975379;28;20210;-79
2022/06/12 10:16:13;;;;;;;8.55;2.40;;;25.70;83.60;;;;;;4978815;28;20191;-78
2022/06/12 10:18:44;;;;;;;8.98;2.35;;;25.80;81.90;;;;;;4975385;28;20172;-79
2022/06/12 10:21:15;;;;;;;7.07;2.65;;;25.80;81.70;;;;;;4982133;28;20200;-82
2022/06/12 10:23:41;;;;;;;9.10;2.33;;;26.20;80.30;;;;;;4977410;28;20191;-80
2022/06/12 10:26:29;;;;;;;7.20;1.98;;;26.30;81.50;;;;;;4981642;28;20267;-80
2022/06/12 10:29:06;;;;;;;5.50;1.95;;;25.80;81.30;;;;;;4979944;28;20270;-82
2022/06/12 10:31:44;;;;;;;7.22;2.03;;;26.90;83.70;;;;;;4975579;28;20199;-80
2022/06/12 10:34:31;;;;;;;10.43;2.08;;;27.70;82.10;;;;;;4975928;28;20235;-81
2022/06/12 10:37:15;;;;;;;8.75;2.10;;;27.70;79.90;;;;;;4976148;28;20168;-81
2022/06/12 10:39:41;;;;;;;10.25;2.47;;;27.60;78.60;;;;;;4976299;28;20187;-80
2022/06/12 10:42:27;;;;;;;11.38;2.25;;;26.30;79.90;;;;;;4974158;28;20195;-80
2022/06/12 10:44:56;;;;;;;14.40;2.42;;;27.50;83.50;;;;;;4974796;28;20184;-81
2022/06/12 10:47:27;;;;;;;8.57;2.22;;;27.70;81.00;;;;;;4975742;28;20203;-81
2022/06/12 10:50:15;;;;;;;11.35;3.22;;;27.00;78.90;;;;;;4974301;28;20644;-81
2022/06/12 10:53:24;;;;;;;17.17;3.03;;;27.60;85.10;;;;;;4973219;28;20362;-81
2022/06/12 10:56:20;;;;;;;12.30;2.70;;;27.40;78.30;;;;;;4965363;28;20637;-80
2022/06/12 10:59:23;;;;;;;14.00;3.13;;;27.00;81.00;;;;;;4972951;28;20211;-80
2022/06/12 11:02:26;;;;;;;12.40;2.42;;;26.80;83.60;;;;;;4973794;28;20196;-80
2022/06/12 11:04:58;;;;;;;11.02;2.50;;;27.20;83.70;;;;;;4975854;28;20640;-79
2022/06/12 11:07:32;;;;;;;10.70;2.58;;;27.40;81.70;;;;;;4973546;28;20183;-80
2022/06/12 11:10:24;;;;;;;8.15;1.98;;;27.90;81.50;;;;;;4972433;28;20636;-81
2022/06/12 11:12:59;;;;;;;10.05;2.30;;;27.60;80.70;;;;;;4972611;28;20269;-80
2022/06/12 11:15:49;;;;;;;8.05;1.80;;;27.10;78.30;;;;;;4973379;28;20171;-83
2022/06/12 11:18:26;;;;;;;9.85;2.60;;;26.50;81.30;;;;;;4974371;28;20203;-81
2022/06/12 11:21:28;;;;;;;6.30;1.98;;;27.10;82.90;;;;;;4973843;28;20242;-82
2022/06/12 11:24:31;;;;;;;5.40;1.90;;;27.60;76.90;;;;;;4973062;28;20191;-82
2022/06/12 11:27:22;;;;;;;10.15;2.00;;;27.60;79.30;;;;;;4973624;28;20186;-83
2022/06/12 11:30:11;;;;;;;10.40;1.92;;;27.10;79.60;;;;;;4975909;28;20210;-83
2022/06/12 11:32:57;;;;;;;7.28;1.90;;;26.50;79.80;;;;;;4973295;28;20735;-81
2022/06/12 11:35:47;;;;;;;8.07;2.30;;;26.50;79.50;;;;;;4965526;28;20430;-82
2022/06/12 11:38:19;;;;;;;27.02;12.55;;;25.80;81.70;;;;;;4972384;28;20199;-82
2022/06/12 11:41:15;;;;;;;11.80;3.47;;;26.60;80.20;;;;;;4972349;28;20172;-81
2022/06/12 11:43:49;;;;;;;9.13;2.85;;;26.00;79.30;;;;;;4957204;28;20237;-81
2022/06/12 11:46:39;;;;;;;12.02;3.13;;;26.50;80.10;;;;;;4971483;28;20176;-82
2022/06/12 11:49:32;;;;;;;6.75;2.00;;;26.00;79.20;;;;;;4972308;28;20267;-82
2022/06/12 11:52:05;;;;;;;7.47;2.40;;;26.70;79.40;;;;;;4973033;28;20196;-82
2022/06/12 11:54:43;;;;;;;6.85;2.00;;;26.20;79.50;;;;;;4972363;28;20209;-81
2022/06/12 11:57:14;;;;;;;10.75;3.03;;;25.80;79.70;;;;;;4972196;28;20170;-82
2022/06/12 12:00:03;;;;;;;9.63;2.13;;;26.20;81.90;;;;;;4973134;28;20184;-82
2022/06/12 12:02:47;;;;;;;7.65;2.35;;;26.80;80.70;;;;;;4972377;28;20212;-82
2022/06/12 12:05:59;;;;;;;7.55;2.28;;;26.20;77.90;;;;;;4972533;28;20234;-84
2022/06/12 12:09:01;;;;;;;6.85;1.95;;;25.90;80.10;;;;;;4969783;28;20192;-83
2022/06/12 12:11:32;;;;;;;9.60;2.92;;;26.60;80.40;;;;;;4971871;28;20196;-82
2022/06/12 12:14:02;;;;;;;11.45;3.22;;;26.00;79.70;;;;;;4973233;28;20211;-81
2022/06/12 12:16:46;;;;;;;8.80;2.85;;;26.50;79.40;;;;;;4977341;28;20464;-82
2022/06/12 12:19:11;;;;;;;9.20;2.47;;;26.50;80.50;;;;;;4980061;28;20250;-81
2022/06/12 12:21:51;;;;;;;9.98;2.30;;;26.30;80.90;;;;;;4974025;28;20733;-83
2022/06/12 12:24:24;;;;;;;6.72;2.30;;;25.50;80.70;;;;;;4972853;28;20203;-82
2022/06/12 12:26:53;;;;;;;8.55;2.53;;;25.60;80.10;;;;;;4974779;28;20641;-82
2022/06/12 12:29:23;;;;;;;15.07;2.80;;;25.60;79.70;;;;;;4973680;28;20267;-82
2022/06/12 12:31:50;;;;;;;8.75;2.00;;;25.10;79.80;;;;;;4972804;28;20188;-82
2022/06/12 12:34:19;;;;;;;6.63;2.75;;;25.40;82.70;;;;;;4972279;28;20189;-82
2022/06/12 12:42:38;;;;;;;7.82;2.08;;;24.70;82.30;;;;;;4972379;28;20214;-82
2022/06/12 12:45:22;;;;;;;10.80;2.38;;;25.20;83.80;;;;;;4970226;28;20270;-83
2022/06/12 12:48:08;;;;;;;9.13;2.50;;;25.70;79.30;;;;;;4972854;28;20172;-83
2022/06/12 12:50:46;;;;;;;7.18;2.05;;;25.70;81.10;;;;;;4976774;28;20260;-84
2022/06/12 12:53:32;;;;;;;4.53;1.90;;;25.50;81.00;;;;;;4979498;28;20200;-84
2022/06/12 12:56:11;;;;;;;9.10;2.17;;;25.80;81.70;;;;;;4978203;28;20489;-83
2022/06/12 12:59:00;;;;;;;7.63;2.08;;;25.70;81.10;;;;;;4975450;28;20267;-82
2022/06/12 13:01:28;;;;;;;8.80;2.00;;;25.90;78.90;;;;;;4977316;28;20239;-83
2022/06/12 13:04:17;;;;;;;8.00;2.15;;;25.10;80.90;;;;;;4976630;28;20226;-82
2022/06/12 13:07:04;;;;;;;11.43;2.47;;;24.90;79.80;;;;;;4975431;28;20235;-83
2022/06/12 13:09:55;;;;;;;6.93;2.85;;;25.20;81.40;;;;;;4973214;28;20199;-81
2022/06/12 13:12:25;;;;;;;9.68;2.10;;;25.60;80.10;;;;;;4972787;28;20220;-82
2022/06/12 13:15:19;;;;;;;7.18;2.05;;;25.60;80.60;;;;;;4973660;28;20160;-82
2022/06/12 13:18:09;;;;;;;4.28;2.08;;;25.90;79.40;;;;;;4974074;28;20169;-83
2022/06/12 13:20:43;;;;;;;9.30;2.35;;;25.30;78.20;;;;;;4973932;28;20173;-81
2022/06/12 13:23:28;;;;;;;8.30;2.20;;;25.50;78.80;;;;;;4973386;28;20485;-83
2022/06/12 13:25:56;;;;;;;12.30;2.67;;;24.90;80.80;;;;;;4979693;28;20663;-85
2022/06/12 13:28:33;;;;;;;8.02;2.60;;;24.80;80.70;;;;;;4972892;28;20202;-84
2022/06/12 13:31:00;;;;;;;7.35;2.22;;;24.90;79.00;;;;;;4975203;28;20176;-83
2022/06/12 13:33:34;;;;;;;10.30;2.20;;;25.10;82.10;;;;;;4977081;28;20192;-84